Time;durP1;ratioP1;P1;durP2;ratioP2;P2;SDS_P1;SDS_P2;PMS_P1;PMS_P2;Temp;Humidity;BMP_temperature;BMP_pressure;BME280_temperature;BME280_humidity;BME280_pressure;Samples;Min_cycle;Max_cycle;Signal;HPM_P1;HPM_P2
2023/05/23 00:00:32;;;;;;;14.38;4.72;;;13.50;99.90;;;;;;4948495;28;20082;-72
2023/05/23 00:03:00;;;;;;;10.38;4.38;;;13.50;99.90;;;;;;4950079;29;20054;-72
2023/05/23 00:05:26;;;;;;;14.45;4.53;;;13.40;99.90;;;;;;4951120;28;20047;-73
2023/05/23 00:07:51;;;;;;;7.22;3.50;;;13.50;99.90;;;;;;4951227;28;20090;-72
2023/05/23 00:10:17;;;;;;;8.25;3.88;;;13.40;99.90;;;;;;4951140;28;20075;-71
2023/05/23 00:12:43;;;;;;;9.13;4.43;;;13.40;99.90;;;;;;4950460;28;20510;-72
2023/05/23 00:15:09;;;;;;;9.88;4.00;;;13.40;99.90;;;;;;4950338;28;20064;-71
2023/05/23 00:17:38;;;;;;;10.00;4.00;;;13.40;99.90;;;;;;4950362;28;20047;-72
2023/05/23 00:20:08;;;;;;;8.30;4.35;;;13.40;99.90;;;;;;4947687;28;20055;-72
2023/05/23 00:22:35;;;;;;;13.57;4.07;;;13.40;99.90;;;;;;4947857;28;20114;-71
2023/05/23 00:25:01;;;;;;;12.43;4.10;;;13.40;99.90;;;;;;4947149;28;20166;-71
2023/05/23 00:27:26;;;;;;;11.52;3.97;;;13.30;99.90;;;;;;4946715;29;20557;-72
2023/05/23 00:29:52;;;;;;;11.82;5.13;;;13.30;99.90;;;;;;4947092;28;20098;-71
2023/05/23 00:32:17;;;;;;;10.88;3.70;;;13.30;99.90;;;;;;4947226;28;20043;-72
2023/05/23 00:34:44;;;;;;;9.23;3.47;;;13.30;99.90;;;;;;4946123;29;20054;-71
2023/05/23 00:37:10;;;;;;;10.75;4.45;;;13.30;99.90;;;;;;4947855;28;20576;-71
2023/05/23 00:39:36;;;;;;;13.57;4.13;;;13.30;99.90;;;;;;4947019;28;20074;-71
2023/05/23 00:42:04;;;;;;;9.70;4.55;;;13.20;99.90;;;;;;4947524;28;20105;-72
2023/05/23 00:44:29;;;;;;;12.30;5.10;;;13.20;99.90;;;;;;4946803;28;20042;-71
2023/05/23 00:46:56;;;;;;;7.82;3.97;;;13.30;99.90;;;;;;4962098;28;20097;-73
2023/05/23 00:49:23;;;;;;;7.32;3.15;;;13.20;99.90;;;;;;4947301;29;20102;-71
2023/05/23 00:51:49;;;;;;;12.10;4.18;;;13.30;99.90;;;;;;4947027;28;20047;-71
2023/05/23 00:54:19;;;;;;;8.40;3.33;;;13.30;99.90;;;;;;4947340;28;20803;-72
2023/05/23 00:56:45;;;;;;;9.38;3.40;;;13.20;99.90;;;;;;4947211;28;20043;-71
2023/05/23 00:59:12;;;;;;;7.70;4.03;;;13.20;99.90;;;;;;4946417;28;20051;-71
2023/05/23 01:01:39;;;;;;;7.63;3.10;;;13.30;99.90;;;;;;4946984;28;20054;-71
2023/05/23 01:04:05;;;;;;;7.22;3.33;;;13.20;99.90;;;;;;4945912;28;20054;-72
2023/05/23 01:06:32;;;;;;;13.27;3.63;;;13.20;99.90;;;;;;5088579;23;20165;-72
2023/05/23 01:09:01;;;;;;;7.65;3.95;;;13.20;99.90;;;;;;5010419;28;20049;-72
2023/05/23 01:11:39;;;;;;;9.68;4.05;;;13.20;99.90;;;;;;5024581;28;20048;-72
2023/05/23 01:14:17;;;;;;;10.95;3.22;;;13.20;99.90;;;;;;5023091;28;20049;-71
2023/05/23 01:16:47;;;;;;;7.00;4.30;;;13.20;99.90;;;;;;5024694;28;20072;-71
2023/05/23 01:19:37;;;;;;;6.55;3.28;;;13.20;99.90;;;;;;5025020;28;20044;-71
2023/05/23 01:22:15;;;;;;;7.88;3.38;;;13.20;99.90;;;;;;5025188;28;20052;-71
2023/05/23 01:24:54;;;;;;;15.30;3.30;;;13.10;99.90;;;;;;5024682;28;20037;-71
2023/05/23 01:27:50;;;;;;;7.40;3.60;;;13.10;99.90;;;;;;5018761;28;20046;-72
2023/05/23 01:30:18;;;;;;;6.63;3.85;;;13.10;99.90;;;;;;5011806;28;20222;-71
2023/05/23 01:32:46;;;;;;;5.35;3.15;;;13.10;99.90;;;;;;5005392;28;20053;-72
2023/05/23 01:35:17;;;;;;;8.48;3.88;;;13.10;99.90;;;;;;5005117;28;20045;-71
2023/05/23 01:37:43;;;;;;;8.73;3.60;;;13.20;99.90;;;;;;5004914;28;20077;-71
2023/05/23 01:40:09;;;;;;;7.15;2.15;;;13.10;99.90;;;;;;5004618;28;20050;-71
2023/05/23 01:42:35;;;;;;;7.88;3.30;;;13.10;99.90;;;;;;5017397;28;20041;-71
2023/05/23 01:45:00;;;;;;;6.03;3.25;;;13.10;99.90;;;;;;5019020;28;20045;-71
2023/05/23 01:47:26;;;;;;;9.23;3.03;;;13.10;99.90;;;;;;5003183;28;20451;-73
2023/05/23 01:49:54;;;;;;;8.57;3.92;;;13.20;99.90;;;;;;5005044;28;20546;-71
2023/05/23 01:52:20;;;;;;;11.00;3.30;;;13.10;99.90;;;;;;4987405;28;20119;-71
2023/05/23 01:54:47;;;;;;;8.13;2.85;;;13.10;99.90;;;;;;5002968;28;20054;-71
2023/05/23 01:57:13;;;;;;;7.00;2.38;;;13.10;99.90;;;;;;5003297;28;20053;-71
2023/05/23 01:59:39;;;;;;;10.18;3.78;;;13.10;99.90;;;;;;5002546;28;20052;-72
2023/05/23 02:02:05;;;;;;;4.43;2.42;;;13.00;99.90;;;;;;5004777;28;20125;-71
2023/05/23 02:04:31;;;;;;;11.25;3.22;;;13.10;99.90;;;;;;5022918;28;20037;-72
2023/05/23 02:06:56;;;;;;;11.10;3.03;;;13.00;99.90;;;;;;5011276;28;20054;-73
2023/05/23 02:09:22;;;;;;;17.25;3.47;;;13.00;99.90;;;;;;5024472;28;20072;-71
2023/05/23 02:11:47;;;;;;;7.30;3.13;;;13.00;99.90;;;;;;5019219;28;20511;-71
2023/05/23 02:14:13;;;;;;;9.07;3.42;;;13.00;99.90;;;;;;5002040;28;20046;-72
2023/05/23 02:16:38;;;;;;;8.27;2.97;;;13.00;99.90;;;;;;5004126;28;20037;-72
2023/05/23 02:19:04;;;;;;;7.65;2.53;;;13.00;99.90;;;;;;5002605;28;20046;-72
2023/05/23 02:21:30;;;;;;;5.82;3.08;;;12.90;99.90;;;;;;5004256;28;20129;-71
2023/05/23 02:23:56;;;;;;;10.40;3.35;;;12.90;99.90;;;;;;5003946;28;20052;-73
2023/05/23 02:26:21;;;;;;;9.27;3.55;;;12.90;99.90;;;;;;5004679;28;20050;-71
2023/05/23 02:28:47;;;;;;;5.82;3.58;;;12.90;99.90;;;;;;5002827;28;20063;-71
2023/05/23 02:31:13;;;;;;;5.10;2.25;;;12.80;99.90;;;;;;5004619;28;20045;-71
2023/05/23 02:33:38;;;;;;;8.02;2.60;;;12.80;99.90;;;;;;5002178;28;20480;-72
2023/05/23 02:36:04;;;;;;;6.82;2.65;;;12.80;99.90;;;;;;5002932;28;20060;-72
2023/05/23 02:38:30;;;;;;;6.32;3.10;;;12.80;99.90;;;;;;5003629;28;20528;-71
2023/05/23 02:40:56;;;;;;;12.02;3.17;;;12.80;99.90;;;;;;5004467;28;20081;-73
2023/05/23 02:43:22;;;;;;;12.13;4.22;;;12.80;99.90;;;;;;5002308;28;20053;-71
2023/05/23 02:45:48;;;;;;;7.22;3.03;;;12.80;99.90;;;;;;5010387;28;20041;-72
2023/05/23 02:48:13;;;;;;;6.18;2.83;;;12.80;99.90;;;;;;5023982;28;20751;-72
2023/05/23 02:50:39;;;;;;;5.90;2.20;;;12.80;99.90;;;;;;5021050;28;20082;-72
2023/05/23 02:53:05;;;;;;;5.50;2.30;;;12.80;99.90;;;;;;5003862;28;20050;-71
2023/05/23 02:55:30;;;;;;;4.05;2.28;;;12.80;99.90;;;;;;5003495;28;20477;-72
2023/05/23 02:57:57;;;;;;;5.13;2.10;;;12.80;99.90;;;;;;5004322;28;20538;-73
2023/05/23 03:00:23;;;;;;;7.63;2.40;;;12.70;99.90;;;;;;5002916;28;20042;-72
2023/05/23 03:02:49;;;;;;;5.18;2.05;;;12.70;99.90;;;;;;5006926;28;20099;-72
2023/05/23 03:05:15;;;;;;;5.63;2.65;;;12.70;99.90;;;;;;5015632;28;20084;-72
2023/05/23 03:07:40;;;;;;;6.32;2.10;;;12.70;99.90;;;;;;5017570;28;20129;-72
2023/05/23 03:10:07;;;;;;;5.65;2.20;;;12.70;99.90;;;;;;5021406;28;20045;-71
2023/05/23 03:12:32;;;;;;;5.57;1.50;;;12.70;99.90;;;;;;5002229;28;20092;-72
2023/05/23 03:14:58;;;;;;;5.55;1.85;;;12.70;99.90;;;;;;5001562;28;20053;-71
2023/05/23 03:17:24;;;;;;;2.60;1.20;;;12.70;99.90;;;;;;5005148;28;20488;-72
2023/05/23 03:19:50;;;;;;;4.20;1.83;;;12.70;99.90;;;;;;5013120;28;20053;-71
2023/05/23 03:22:16;;;;;;;9.77;2.13;;;12.60;99.90;;;;;;5003376;28;20046;-72
2023/05/23 03:24:41;;;;;;;8.40;2.90;;;12.60;99.90;;;;;;5003152;28;20042;-71
2023/05/23 03:27:07;;;;;;;8.55;2.35;;;12.60;99.90;;;;;;5002104;28;20153;-72
2023/05/23 03:29:33;;;;;;;4.10;1.95;;;12.60;99.90;;;;;;5002578;28;20077;-71
2023/05/23 03:31:58;;;;;;;10.73;2.60;;;12.60;99.90;;;;;;5002149;28;20579;-71
2023/05/23 03:34:25;;;;;;;11.40;2.30;;;12.60;99.90;;;;;;5002632;28;20572;-71
2023/05/23 03:36:51;;;;;;;4.30;1.60;;;12.60;99.90;;;;;;5002662;28;20054;-71
2023/05/23 03:39:17;;;;;;;5.95;2.28;;;12.60;99.90;;;;;;5003479;28;20150;-72
2023/05/23 03:41:42;;;;;;;5.10;2.10;;;12.60;99.90;;;;;;5003603;28;20049;-71
2023/05/23 03:44:08;;;;;;;6.78;2.05;;;12.60;99.90;;;;;;5001237;28;20559;-72
2023/05/23 03:46:33;;;;;;;6.85;1.98;;;12.60;99.90;;;;;;5017004;28;20077;-72
2023/05/23 03:48:59;;;;;;;5.22;3.05;;;12.50;99.90;;;;;;5006743;28;20049;-72
2023/05/23 03:51:24;;;;;;;3.90;2.65;;;12.50;99.90;;;;;;5019226;28;20049;-72
2023/05/23 03:53:50;;;;;;;6.75;2.13;;;12.50;99.90;;;;;;5023024;28;20042;-72
2023/05/23 03:56:15;;;;;;;3.95;1.42;;;12.50;99.90;;;;;;5016364;28;20062;-72
2023/05/23 03:58:41;;;;;;;5.13;1.40;;;12.50;99.90;;;;;;5022122;28;20450;-72
2023/05/23 04:01:08;;;;;;;6.15;2.20;;;12.50;99.90;;;;;;5022708;28;20065;-71
2023/05/23 04:03:33;;;;;;;5.97;2.00;;;12.40;99.90;;;;;;5005465;28;20049;-71
2023/05/23 04:06:00;;;;;;;5.28;1.58;;;12.40;99.90;;;;;;5004949;28;20053;-72
2023/05/23 04:08:26;;;;;;;7.63;1.73;;;12.30;99.90;;;;;;5006750;28;20041;-73
2023/05/23 04:10:51;;;;;;;4.97;1.58;;;12.30;99.90;;;;;;5006924;28;20130;-71
2023/05/23 04:13:17;;;;;;;4.97;1.48;;;12.30;99.90;;;;;;5009787;28;20138;-71
2023/05/23 04:15:43;;;;;;;4.68;1.63;;;12.20;99.90;;;;;;5024165;28;20076;-72
2023/05/23 04:18:09;;;;;;;4.22;2.08;;;12.20;99.90;;;;;;5026295;28;20403;-71
2023/05/23 04:20:35;;;;;;;7.10;2.47;;;12.20;99.90;;;;;;5023998;28;20057;-72
2023/05/23 04:23:00;;;;;;;4.63;1.52;;;12.20;99.90;;;;;;5025798;28;20087;-71
2023/05/23 04:25:26;;;;;;;3.95;1.70;;;12.10;99.90;;;;;;5025555;28;20624;-73
2023/05/23 04:27:53;;;;;;;12.75;2.47;;;12.10;99.90;;;;;;5026572;28;20095;-71
2023/05/23 04:30:19;;;;;;;7.18;2.00;;;12.10;99.90;;;;;;5023433;28;20364;-72
2023/05/23 04:32:44;;;;;;;2.97;2.30;;;12.10;99.90;;;;;;5025806;28;20049;-72
2023/05/23 04:35:10;;;;;;;5.38;1.95;;;12.10;99.90;;;;;;5025869;28;20159;-72
2023/05/23 04:37:36;;;;;;;11.05;2.05;;;12.00;99.90;;;;;;5025115;28;20127;-72
2023/05/23 04:40:03;;;;;;;5.43;2.30;;;12.00;99.90;;;;;;5021701;28;20053;-71
2023/05/23 04:42:29;;;;;;;4.07;2.05;;;12.00;99.90;;;;;;5009621;28;20087;-72
2023/05/23 04:44:57;;;;;;;2.83;1.83;;;12.00;99.90;;;;;;5013052;28;20480;-72
2023/05/23 04:47:27;;;;;;;9.40;2.15;;;12.00;99.90;;;;;;5012663;28;20049;-71
2023/05/23 04:49:56;;;;;;;4.78;2.65;;;12.00;99.90;;;;;;5004261;28;20084;-71
2023/05/23 04:52:22;;;;;;;5.95;2.55;;;11.90;99.90;;;;;;5005925;28;20180;-71
2023/05/23 04:54:48;;;;;;;9.57;2.63;;;11.90;99.90;;;;;;5005183;28;20137;-71
2023/05/23 04:57:14;;;;;;;5.35;2.03;;;11.90;99.90;;;;;;5005791;28;20058;-71
2023/05/23 04:59:41;;;;;;;6.50;2.28;;;11.90;99.90;;;;;;5003413;28;20046;-71
2023/05/23 05:02:08;;;;;;;2.88;1.60;;;11.90;99.90;;;;;;5005253;28;20121;-71
2023/05/23 05:04:33;;;;;;;3.42;1.77;;;11.90;99.90;;;;;;5004976;28;20045;-71
2023/05/23 05:06:59;;;;;;;5.88;1.35;;;11.80;99.90;;;;;;5015628;28;20062;-71
2023/05/23 05:09:25;;;;;;;3.60;1.42;;;11.80;99.90;;;;;;5012700;28;20048;-71
2023/05/23 05:11:50;;;;;;;3.70;1.98;;;11.80;99.90;;;;;;5024962;28;20040;-71
2023/05/23 05:14:16;;;;;;;8.90;1.88;;;11.80;99.90;;;;;;5020706;28;20454;-71
2023/05/23 05:16:41;;;;;;;1.95;1.50;;;11.80;99.90;;;;;;5010375;28;20072;-72
2023/05/23 05:19:07;;;;;;;4.25;1.92;;;11.80;99.90;;;;;;5014627;28;20049;-73
2023/05/23 05:21:32;;;;;;;3.00;1.90;;;11.80;99.90;;;;;;5011194;28;21917;-73
2023/05/23 05:23:58;;;;;;;9.50;2.13;;;11.80;99.90;;;;;;5010408;28;20041;-72
2023/05/23 05:26:25;;;;;;;3.28;1.30;;;11.80;99.90;;;;;;5009743;28;20050;-72
2023/05/23 05:28:51;;;;;;;4.57;2.13;;;11.80;99.90;;;;;;5027423;28;20260;-72
2023/05/23 05:31:17;;;;;;;3.05;1.55;;;11.80;99.90;;;;;;5010558;28;20038;-71
2023/05/23 05:33:44;;;;;;;2.92;1.17;;;11.80;99.90;;;;;;5008888;28;20038;-71
2023/05/23 05:36:10;;;;;;;2.72;1.42;;;11.80;99.90;;;;;;5013177;28;20037;-71
2023/05/23 05:38:35;;;;;;;3.92;1.30;;;11.80;99.90;;;;;;5011091;28;20042;-71
2023/05/23 05:41:01;;;;;;;7.13;1.52;;;11.80;99.90;;;;;;5006346;28;20117;-71
2023/05/23 05:43:26;;;;;;;4.75;1.55;;;11.80;99.90;;;;;;5002931;28;20104;-72
2023/05/23 05:45:52;;;;;;;4.70;1.10;;;11.80;99.90;;;;;;5010365;28;20042;-72
2023/05/23 05:48:18;;;;;;;5.10;1.20;;;11.70;99.90;;;;;;5010342;28;20037;-71
2023/05/23 05:50:44;;;;;;;4.88;2.05;;;11.70;99.90;;;;;;5015215;28;20037;-71
2023/05/23 05:53:11;;;;;;;5.60;1.73;;;11.70;99.90;;;;;;5008794;28;20038;-70
2023/05/23 05:55:37;;;;;;;5.88;2.65;;;11.70;99.90;;;;;;5014220;28;20125;-71
2023/05/23 05:58:03;;;;;;;5.15;1.73;;;11.80;99.90;;;;;;5001614;28;20463;-70
2023/05/23 06:00:29;;;;;;;6.78;2.65;;;11.80;99.90;;;;;;5003381;28;20049;-71
2023/05/23 06:02:56;;;;;;;5.82;1.98;;;11.80;99.90;;;;;;5004017;28;20050;-71
2023/05/23 06:05:22;;;;;;;7.30;2.17;;;11.90;99.90;;;;;;5019190;28;20147;-71
2023/05/23 06:07:49;;;;;;;4.00;1.33;;;11.90;99.90;;;;;;5021730;28;20057;-72
2023/05/23 06:10:15;;;;;;;3.63;1.80;;;11.90;99.90;;;;;;5020460;28;20037;-72
2023/05/23 06:12:40;;;;;;;6.25;1.83;;;12.00;99.90;;;;;;5014418;28;20092;-72
2023/05/23 06:15:08;;;;;;;6.40;1.05;;;12.00;99.90;;;;;;5003036;28;20045;-72
2023/05/23 06:17:33;;;;;;;5.95;1.20;;;12.00;99.90;;;;;;5006983;28;20428;-72
2023/05/23 06:19:59;;;;;;;7.85;1.15;;;12.00;99.90;;;;;;5018670;28;20136;-73
2023/05/23 06:22:25;;;;;;;5.93;2.65;;;12.00;99.90;;;;;;5007057;28;20042;-73
2023/05/23 06:24:50;;;;;;;2.72;0.93;;;12.00;99.90;;;;;;5005838;28;20048;-73
2023/05/23 06:27:16;;;;;;;4.93;1.42;;;12.10;99.90;;;;;;5003121;28;20496;-73
2023/05/23 06:29:41;;;;;;;5.43;1.92;;;12.10;99.90;;;;;;5002966;28;20050;-73
2023/05/23 06:32:07;;;;;;;6.03;2.05;;;12.20;99.90;;;;;;5007752;28;20046;-74
2023/05/23 06:34:33;;;;;;;6.32;2.00;;;12.20;99.90;;;;;;5015875;28;20050;-72
2023/05/23 06:36:58;;;;;;;7.10;1.27;;;12.10;99.90;;;;;;5021055;28;20056;-71
2023/05/23 06:39:24;;;;;;;6.90;2.42;;;12.10;99.90;;;;;;5022533;28;20488;-72
2023/05/23 06:41:50;;;;;;;4.10;1.15;;;12.10;99.90;;;;;;5021607;28;20452;-72
2023/05/23 06:44:16;;;;;;;5.70;2.25;;;12.10;99.90;;;;;;5021265;28;20096;-72
2023/05/23 06:46:44;;;;;;;14.30;2.05;;;12.10;99.90;;;;;;5006897;28;20124;-71
2023/05/23 06:49:09;;;;;;;5.80;1.20;;;12.10;99.90;;;;;;5000718;28;20133;-72
2023/05/23 06:51:35;;;;;;;8.27;1.48;;;12.10;99.90;;;;;;5002370;28;20113;-72
2023/05/23 06:54:01;;;;;;;5.72;1.42;;;12.10;99.90;;;;;;5000830;28;20038;-72
2023/05/23 06:56:26;;;;;;;2.30;1.25;;;12.10;99.90;;;;;;5002238;28;20545;-73
2023/05/23 06:58:52;;;;;;;3.33;1.38;;;12.20;99.90;;;;;;5001538;28;20046;-72
2023/05/23 07:01:17;;;;;;;3.85;1.63;;;12.10;99.90;;;;;;5001338;28;20526;-72
2023/05/23 07:03:44;;;;;;;3.80;1.85;;;12.20;99.90;;;;;;5000067;28;20045;-71
2023/05/23 07:06:11;;;;;;;4.38;1.60;;;12.20;99.90;;;;;;5002030;28;20129;-72
2023/05/23 07:08:37;;;;;;;9.65;1.63;;;12.20;99.90;;;;;;5002198;28;20072;-71
2023/05/23 07:11:03;;;;;;;4.15;1.35;;;12.20;99.90;;;;;;5001626;28;20049;-72
2023/05/23 07:13:28;;;;;;;2.75;1.30;;;12.20;99.90;;;;;;5001166;28;20038;-71
2023/05/23 07:15:54;;;;;;;7.80;1.77;;;12.20;99.90;;;;;;5002115;28;20038;-72
2023/05/23 07:18:20;;;;;;;5.85;1.35;;;12.20;99.90;;;;;;5002587;28;20046;-71
2023/05/23 07:20:46;;;;;;;7.20;1.65;;;12.20;99.90;;;;;;5001507;28;20581;-72
2023/05/23 07:23:11;;;;;;;3.22;1.15;;;12.30;99.90;;;;;;5001088;28;20089;-72
2023/05/23 07:25:39;;;;;;;6.28;1.60;;;12.30;99.90;;;;;;5000875;28;20732;-72
2023/05/23 07:28:04;;;;;;;5.15;1.75;;;12.30;99.90;;;;;;5002204;28;20041;-72
2023/05/23 07:30:30;;;;;;;4.00;1.33;;;12.30;99.90;;;;;;5004289;28;20492;-72
2023/05/23 07:32:56;;;;;;;5.50;2.13;;;12.40;99.90;;;;;;5005640;28;20053;-73
2023/05/23 07:35:24;;;;;;;3.35;1.45;;;12.40;99.90;;;;;;5004947;28;20045;-72
2023/05/23 07:37:52;;;;;;;2.47;1.00;;;12.40;99.90;;;;;;4987792;28;20037;-71
2023/05/23 07:40:18;;;;;;;4.97;1.27;;;12.40;99.90;;;;;;5025002;28;20038;-72
2023/05/23 07:42:43;;;;;;;5.65;0.82;;;12.50;99.90;;;;;;5024520;28;20033;-71
2023/05/23 07:45:09;;;;;;;9.82;1.85;;;12.50;99.90;;;;;;5013720;28;20037;-71
2023/05/23 07:47:35;;;;;;;2.47;1.80;;;12.60;99.90;;;;;;5037377;28;20049;-71
2023/05/23 07:50:01;;;;;;;5.35;1.75;;;12.60;99.90;;;;;;5008317;28;20420;-72
2023/05/23 07:52:28;;;;;;;3.45;1.20;;;12.60;99.90;;;;;;5019694;28;20077;-72
2023/05/23 07:54:53;;;;;;;1.45;0.88;;;12.50;99.90;;;;;;5021257;28;20108;-72
2023/05/23 07:57:19;;;;;;;2.25;1.70;;;12.50;99.90;;;;;;5034485;28;20079;-72
2023/05/23 07:59:45;;;;;;;3.38;1.60;;;12.50;99.90;;;;;;5028021;28;20049;-72
2023/05/23 08:02:10;;;;;;;2.03;1.23;;;12.60;99.90;;;;;;5020877;28;20045;-72
2023/05/23 08:04:36;;;;;;;9.05;1.35;;;12.70;99.90;;;;;;5024857;28;20041;-72
2023/05/23 08:07:04;;;;;;;4.72;1.20;;;12.70;99.90;;;;;;5020937;28;20091;-73
2023/05/23 08:09:29;;;;;;;3.80;1.20;;;12.70;99.90;;;;;;5008576;28;20258;-72
2023/05/23 08:11:55;;;;;;;9.48;1.63;;;12.70;99.90;;;;;;5013529;28;20413;-72
2023/05/23 08:14:21;;;;;;;5.65;1.05;;;12.70;99.90;;;;;;5015103;28;20036;-71
2023/05/23 08:16:47;;;;;;;4.72;1.13;;;12.70;99.90;;;;;;5020009;28;20087;-73
2023/05/23 08:19:13;;;;;;;8.05;1.45;;;12.70;99.90;;;;;;4995336;28;20121;-71
2023/05/23 08:21:39;;;;;;;9.80;2.47;;;12.70;99.90;;;;;;5007462;28;20073;-72
2023/05/23 08:24:04;;;;;;;6.03;2.00;;;12.70;99.90;;;;;;5008830;28;20042;-72
2023/05/23 08:26:33;;;;;;;3.78;1.17;;;12.80;99.90;;;;;;5023524;28;20557;-72
2023/05/23 08:29:01;;;;;;;7.20;1.98;;;12.80;99.90;;;;;;5024058;28;20048;-72
2023/05/23 08:31:27;;;;;;;2.38;0.90;;;12.90;99.90;;;;;;5017470;28;20080;-72
2023/05/23 08:33:53;;;;;;;5.22;1.77;;;12.90;99.90;;;;;;5019723;28;20090;-72
2023/05/23 08:36:18;;;;;;;6.65;2.00;;;12.80;99.90;;;;;;5025069;28;20076;-72
2023/05/23 08:38:44;;;;;;;10.68;2.60;;;12.90;99.90;;;;;;5022991;28;20589;-72
2023/05/23 08:41:17;;;;;;;8.38;1.52;;;12.90;99.90;;;;;;5020991;28;20037;-71
2023/05/23 08:43:43;;;;;;;6.32;1.95;;;13.00;99.90;;;;;;5019757;28;20053;-72
2023/05/23 08:46:09;;;;;;;6.57;1.67;;;13.10;99.90;;;;;;5008709;28;20503;-73
2023/05/23 08:48:37;;;;;;;3.10;0.90;;;13.20;99.90;;;;;;5015981;28;20034;-72
2023/05/23 08:51:03;;;;;;;8.63;2.00;;;13.20;99.90;;;;;;5003774;28;20380;-71
2023/05/23 08:53:31;;;;;;;3.83;1.20;;;13.30;99.90;;;;;;5003604;28;20129;-72
2023/05/23 08:56:01;;;;;;;5.85;1.30;;;13.40;99.90;;;;;;5013810;28;20400;-73
2023/05/23 08:58:33;;;;;;;7.20;1.67;;;13.40;99.90;;;;;;5001777;28;20065;-71
2023/05/23 09:00:59;;;;;;;3.78;1.45;;;13.30;99.90;;;;;;5004665;28;20239;-72
2023/05/23 09:03:28;;;;;;;4.10;2.05;;;13.30;99.90;;;;;;5008209;28;20030;-71
2023/05/23 09:05:54;;;;;;;6.72;2.00;;;13.20;99.90;;;;;;5023094;28;20421;-73
2023/05/23 09:08:20;;;;;;;9.52;2.20;;;13.20;99.90;;;;;;5017022;28;20241;-76
2023/05/23 09:10:51;;;;;;;3.58;1.30;;;13.20;99.90;;;;;;5017644;28;20037;-72
2023/05/23 09:13:19;;;;;;;6.18;2.35;;;13.30;99.90;;;;;;5002327;28;20080;-72
2023/05/23 09:16:05;;;;;;;9.57;1.58;;;13.40;99.90;;;;;;5002525;28;20038;-72
2023/05/23 09:18:36;;;;;;;6.13;1.35;;;13.50;99.90;;;;;;5003722;28;20073;-72
2023/05/23 09:21:02;;;;;;;6.00;1.83;;;13.50;99.90;;;;;;5005386;28;20108;-72
2023/05/23 09:23:32;;;;;;;5.68;1.58;;;13.60;99.90;;;;;;5003180;28;20405;-72
2023/05/23 09:26:05;;;;;;;2.72;1.27;;;13.60;99.90;;;;;;5004367;28;20382;-73
2023/05/23 09:28:36;;;;;;;4.57;1.60;;;13.60;99.90;;;;;;5019927;28;20051;-73
2023/05/23 09:31:05;;;;;;;6.30;1.50;;;13.60;99.90;;;;;;5023654;28;20072;-72
2023/05/23 09:33:38;;;;;;;5.88;1.98;;;13.60;99.90;;;;;;5003766;28;20049;-72
2023/05/23 09:36:05;;;;;;;2.15;0.80;;;13.60;99.90;;;;;;5004177;28;20080;-72
2023/05/23 09:38:31;;;;;;;4.78;1.30;;;13.60;99.90;;;;;;5020739;28;20033;-72
2023/05/23 09:40:58;;;;;;;7.95;1.30;;;13.50;99.90;;;;;;5022313;28;20045;-73
2023/05/23 09:43:24;;;;;;;5.70;1.75;;;13.50;99.90;;;;;;5021385;28;20075;-72
2023/05/23 09:45:51;;;;;;;3.20;1.45;;;13.60;99.90;;;;;;5014529;28;20428;-73
2023/05/23 09:48:16;;;;;;;5.35;1.27;;;13.60;99.90;;;;;;5019895;28;20049;-72
2023/05/23 09:50:45;;;;;;;7.22;1.35;;;13.70;99.90;;;;;;5022952;28;20436;-72
2023/05/23 09:53:11;;;;;;;3.63;1.38;;;13.60;99.90;;;;;;5022969;28;20041;-72
2023/05/23 09:55:39;;;;;;;7.00;1.35;;;13.70;99.90;;;;;;5007690;28;20056;-73
2023/05/23 09:58:06;;;;;;;10.57;2.03;;;13.70;99.90;;;;;;5002690;28;20315;-73
2023/05/23 10:00:33;;;;;;;4.30;2.15;;;13.60;99.90;;;;;;5006176;28;20085;-73
2023/05/23 10:03:12;;;;;;;5.93;2.08;;;13.60;99.90;;;;;;5011379;28;20045;-72
2023/05/23 10:05:47;;;;;;;3.15;1.10;;;13.60;99.90;;;;;;5008717;28;20551;-73
2023/05/23 10:08:18;;;;;;;2.53;1.25;;;13.60;99.90;;;;;;5021238;28;20041;-72
2023/05/23 10:10:56;;;;;;;2.83;2.45;;;13.70;99.90;;;;;;5020096;28;20054;-73
2023/05/23 10:13:25;;;;;;;6.03;1.63;;;13.70;99.90;;;;;;5021664;28;20050;-72
2023/05/23 10:16:01;;;;;;;9.50;2.05;;;13.60;99.90;;;;;;5019721;28;20184;-73
2023/05/23 10:18:30;;;;;;;5.57;1.58;;;13.70;99.90;;;;;;5003860;28;20094;-72
2023/05/23 10:21:05;;;;;;;2.90;1.15;;;13.70;99.90;;;;;;5003097;28;20116;-74
2023/05/23 10:23:32;;;;;;;5.47;1.45;;;13.70;99.90;;;;;;5004654;28;20046;-72
2023/05/23 10:25:58;;;;;;;4.90;1.23;;;13.60;99.90;;;;;;5002060;28;20352;-73
2023/05/23 10:28:23;;;;;;;13.02;2.05;;;13.70;99.90;;;;;;5001437;28;20046;-72
2023/05/23 10:30:50;;;;;;;7.00;1.25;;;13.70;99.90;;;;;;5003816;28;20400;-73
2023/05/23 10:33:16;;;;;;;8.02;1.98;;;13.60;99.90;;;;;;5009135;28;20846;-73
2023/05/23 10:36:09;;;;;;;8.38;1.67;;;13.70;99.90;;;;;;5019529;28;20065;-73
2023/05/23 10:38:48;;;;;;;5.82;1.70;;;13.70;99.90;;;;;;5011020;28;20081;-73
2023/05/23 10:41:40;;;;;;;4.20;1.48;;;13.70;99.90;;;;;;5012356;28;20457;-71
2023/05/23 10:44:17;;;;;;;4.13;1.33;;;13.70;99.90;;;;;;5003724;28;20100;-72
2023/05/23 10:46:49;;;;;;;3.88;1.40;;;13.80;99.90;;;;;;5009868;28;20401;-73
2023/05/23 10:49:16;;;;;;;4.32;1.27;;;13.80;99.90;;;;;;5003934;28;20111;-73
2023/05/23 10:51:41;;;;;;;3.85;1.05;;;13.80;99.90;;;;;;5020866;28;20033;-73
2023/05/23 10:54:11;;;;;;;5.15;1.35;;;13.80;99.90;;;;;;5005541;28;20115;-73
2023/05/23 10:56:36;;;;;;;3.35;1.30;;;13.80;99.90;;;;;;5022246;28;20399;-73
2023/05/23 10:59:05;;;;;;;9.18;1.50;;;13.80;99.90;;;;;;5013304;28;20040;-74
2023/05/23 11:01:31;;;;;;;8.30;1.25;;;13.80;99.90;;;;;;5002979;28;20046;-73
2023/05/23 11:03:56;;;;;;;3.42;1.30;;;13.90;99.90;;;;;;5009748;28;20057;-73
2023/05/23 11:06:43;;;;;;;15.90;1.67;;;13.80;99.90;;;;;;5017858;28;20103;-73
2023/05/23 11:09:13;;;;;;;2.72;1.27;;;13.90;99.90;;;;;;5003641;28;20081;-72
2023/05/23 11:12:02;;;;;;;7.97;1.25;;;13.80;99.90;;;;;;5016030;28;20037;-73
2023/05/23 11:14:34;;;;;;;4.32;0.90;;;13.80;99.90;;;;;;5018892;28;20045;-73
2023/05/23 11:17:13;;;;;;;8.43;1.63;;;13.80;99.90;;;;;;5019873;28;20720;-74
2023/05/23 11:19:53;;;;;;;3.92;1.10;;;13.80;99.90;;;;;;5021857;28;20419;-72
2023/05/23 11:22:20;;;;;;;6.65;2.03;;;13.80;99.90;;;;;;5021752;28;20044;-74
2023/05/23 11:24:56;;;;;;;9.15;1.88;;;13.90;99.90;;;;;;5021797;28;20053;-73
2023/05/23 11:27:25;;;;;;;8.23;1.52;;;13.90;99.90;;;;;;5020934;28;20064;-73
2023/05/23 11:30:12;;;;;;;5.88;1.10;;;13.90;99.90;;;;;;5021980;28;20034;-73
2023/05/23 11:32:38;;;;;;;3.63;1.30;;;14.00;99.90;;;;;;5020936;28;20064;-74
2023/05/23 11:35:09;;;;;;;2.20;0.80;;;14.00;99.90;;;;;;5022127;28;20052;-73
2023/05/23 11:37:36;;;;;;;1.45;0.95;;;14.00;99.90;;;;;;5003973;28;20038;-73
2023/05/23 11:40:25;;;;;;;4.95;1.00;;;14.00;99.90;;;;;;5020680;28;20041;-73
2023/05/23 11:42:51;;;;;;;6.13;0.82;;;14.00;99.90;;;;;;5019594;28;20056;-73
2023/05/23 11:45:21;;;;;;;3.42;1.63;;;13.90;99.90;;;;;;5017980;28;20042;-73
2023/05/23 11:47:46;;;;;;;9.07;1.58;;;14.00;99.90;;;;;;5001543;28;20444;-73
2023/05/23 11:50:12;;;;;;;10.43;1.75;;;13.90;99.90;;;;;;4984213;28;20074;-73
2023/05/23 11:52:38;;;;;;;6.63;1.55;;;14.00;99.90;;;;;;5001170;28;20389;-73
2023/05/23 11:55:05;;;;;;;7.88;1.83;;;13.90;99.90;;;;;;5000496;28;20045;-73
2023/05/23 11:57:31;;;;;;;9.70;1.58;;;13.90;99.90;;;;;;5001190;28;20046;-73
2023/05/23 11:59:56;;;;;;;2.28;1.10;;;13.80;99.90;;;;;;4999950;28;20297;-74
2023/05/23 12:02:26;;;;;;;5.53;1.33;;;13.80;99.90;;;;;;5002652;28;20045;-73
2023/05/23 12:04:52;;;;;;;4.10;1.15;;;13.90;99.90;;;;;;5000457;28;20145;-73
2023/05/23 12:07:21;;;;;;;2.03;1.83;;;13.90;99.90;;;;;;5001233;28;20281;-73
2023/05/23 12:09:46;;;;;;;8.50;1.27;;;13.90;99.90;;;;;;5001629;28;20399;-73
2023/05/23 12:12:13;;;;;;;4.00;0.82;;;14.00;99.90;;;;;;5000549;28;20117;-73
2023/05/23 12:14:43;;;;;;;4.85;1.00;;;14.00;99.90;;;;;;4999557;28;20507;-74
2023/05/23 12:17:12;;;;;;;4.38;1.38;;;14.00;99.90;;;;;;5005739;28;20077;-73
2023/05/23 12:19:38;;;;;;;6.53;1.35;;;14.00;99.90;;;;;;5004593;28;20107;-73
2023/05/23 12:22:08;;;;;;;6.18;1.38;;;14.00;99.90;;;;;;5003400;28;20050;-74
2023/05/23 12:24:35;;;;;;;2.58;0.98;;;14.10;99.90;;;;;;5005365;28;20480;-73
2023/05/23 12:27:02;;;;;;;12.15;1.98;;;14.00;99.90;;;;;;5003740;28;20444;-73
2023/05/23 12:29:32;;;;;;;4.40;1.65;;;14.10;99.90;;;;;;5004631;28;20038;-73
2023/05/23 12:32:01;;;;;;;3.50;1.38;;;14.10;99.90;;;;;;5005068;28;20049;-74
2023/05/23 12:34:27;;;;;;;2.42;1.30;;;14.10;99.90;;;;;;5003208;28;20033;-74
2023/05/23 12:37:02;;;;;;;5.18;1.02;;;14.10;99.90;;;;;;5005282;28;20046;-73
2023/05/23 12:39:28;;;;;;;7.13;1.30;;;14.10;99.90;;;;;;4986507;28;20326;-73
2023/05/23 12:42:05;;;;;;;1.92;1.55;;;14.10;99.90;;;;;;5004033;28;20489;-73
2023/05/23 12:44:31;;;;;;;7.00;1.20;;;14.10;99.90;;;;;;5003039;28;20049;-73
2023/05/23 12:46:56;;;;;;;1.73;0.95;;;14.10;99.90;;;;;;5019782;28;20103;-74